Potomac, MD (20859)

9:42 AM EDT on September 30, 2014 (GMT -0400)
Potomac | Change Station
CLOSE
Current Station
Personal Weather Station
Location: Potomac, MD
Elevation: 371 ft
Nearby Weather Stations

Elev 371 ft 39.02 °N, 77.21 °W | Updated 12 seconds ago

Overcast
Overcast
64.0 °F
Feels Like 64.0 °F
N
0.0
Wind Variable Wind from ESE

Today
High -- | Low -- °F
--% Chance of Precip.
Yesterday
High -- | Low -- °F
Precip. -- in
7:03 AM 6:53 PM
Waxing Crescent, 37% visible
Pressure 29.98 in
Visibility 10.0 miles
Clouds Overcast 1100 ft
Dew Point 64 °F
Humidity 100%
Rainfall 0.00 in
Snow Depth Not available.
UV 0.0 out of 12
Pollen 3.30 out of 12
Air Quality Not available.
Flu Activity Not available.
METAR KGAI 301335Z 15003KT 10SM OVC011 18/16 A2998 RMK AO1

More Conditions Fewer Conditions

Pressure 29.98 in
Visibility 10.0 miles
Clouds Overcast 1100 ft
Dew Point 64 °F
Humidity 100%
Rainfall 0.00 in
Snow Depth Not available.
UV 0.0 out of 12
Pollen 3.30 out of 12
Air Quality Not available.
Flu Activity Not available.
METAR KGAI 301335Z 15003KT 10SM OVC011 18/16 A2998 RMK AO1

More Conditions Fewer Conditions

10-Day Weather Forecast

Almanac

Astronomy

Sep. 30, 2014 Rise Set
Actual Time 7:03 AM EDT 6:53 PM EDT
Civil Twilight 6:37 AM EDT 7:19 PM EDT
Nautical Twilight 6:06 AM EDT 7:50 PM EDT
Astronomical Twilight 5:34 AM EDT 8:21 PM EDT
Moon 1:07 PM EDT 11:23 PM EDT
Length of Visible Light 12h 42m
Length of Day
11h 49m
Tomorrow will be 2m 31s shorter.
Waxing Crescent, 37% of the Moon is Illuminated
Today
Waxing Crescent
Oct 1
First Quarter
Oct 8
Full
Oct 15
Last Quarter
Oct 23
New

Today's Extremes

State Highs State Lows

Community

WunderPhotos

Upload Photos

1,757,636 photos uploaded!

Nearby

Snow Depth

Station Depth Elevation
No new snow has been reported.

Earthquake Activity

City Distance Mag. Time & Date
No recent earthquake activity has been reported nearby.
Minimum magnitude displayed is 2.5.

Coastal Water Temperatures

Place Temperature
Washington, DC 71.1 °F
Baltimore, MD 73.9 °F
Solomons Island, MD 72.0 °F

Nearby Weather Stations